If you wish to contribute or participate in the discussions about articles you are invited to join SKYbrary as a registered user

 Actions

Hanoi International

From SKYbrary Wiki

VVNB
Airport
ICAO: VVNB
Summary
Name Hanoi International
Region Asia and Pacific
Territory Vietnam VN.gif
Location Hanoi
Serving
Coordinates 21° 13' 16.00" N, 105° 48' 26.00" E
Runways
Designator Length Width Surface ROPS
11L/29R 3800 m12,467.192 ft
45 m147.638 ft
CON yes/yes
11R/29L 3800 m12,467.192 ft
45 m147.638 ft
CON yes/yes


METAR
Observation VVNB 160600Z 13005KT 100V180 5000 BR BKN011 24/24 Q1014 NOSIG
Station Ha Noi
Date/Time 16 February 2019 06:00:00
Wind direction 130°
Wind speed 05 kts
Lowest cloud amount broken clouds
Temperature 24°C
Dew point 24°C
Humidity 100%
QNH 1014 hPa
Weather condition n/a

LOS
Tag(s) Parallel Runway Operation

Noi Bai International Airport

ICAO: VVNB IATA: HAN

Description

International airport serving the city of Hanoi, Vietnam.

Climatology

Tropical Savanna climate (Köppen climate classification Aw) - monthly mean temperatures above 18°C64.4 °F
291.15 K
524.07 °R
, and a pronounced dry season. A Tropical Savanna climate has more pronounced dry seasons than a Tropical Monsoon climate.

Maps

Terrain

Loading map...

Airport Layout

Loading map...


Accidents & Serious Incidents at or in vicinity of VVNB

None on SKYbrary